Chichester, New Hampshire
Current Conditions -  °F | °C
As of 8:51 AM on Monday 24 Nov 2014 (Local Time) from KCON Reporting Station
Light Rain Light Rain  
Wind Chill: 55°   Ceiling: 900
Heat Index: 55°   Visibility: 3mi
Dew Point: 54°   Wind: 15mph
Humidity: 96%   Direction: 160°SSE
Pressure: 29.71"   Gusts: 25mph
Location:  43.26°N, 71.4°W
Report Text: KCON 241351Z AUTO 16013G22KT 3SM -RA BR OVC009 13/12 A2971 RMK AO2 CIG 006V012 SLP061 P0004 T01280122
Loading
Personal Weather Stations






























Interactive Weather Map New forecast layout! Learn more

10-Day Weather Forecast

Advertisements
Track Severe Weather on mobile